Time;durP1;ratioP1;P1;durP2;ratioP2;P2;SDS_P1;SDS_P2;PMS_P1;PMS_P2;Temp;Humidity;BMP_temperature;BMP_pressure;BME280_temperature;BME280_humidity;BME280_pressure;Samples;Min_cycle;Max_cycle;Signal;HPM_P1;HPM_P2
2021/11/23 00:01:39;;;;;;;2.33;1.00;;;;;;;;;;5109486;28;20200;-45
2021/11/23 00:04:05;;;;;;;1.23;0.90;;;;;;;;;;5105348;28;20217;-45
2021/11/23 00:06:35;;;;;;;1.95;1.33;;;;;;;;;;5104945;28;20209;-45
2021/11/23 00:09:02;;;;;;;1.92;1.33;;;;;;;;;;5101320;28;20220;-45
2021/11/23 00:11:28;;;;;;;3.30;1.10;;;;;;;;;;5114202;28;20576;-45
2021/11/23 00:13:54;;;;;;;1.20;1.10;;;;;;;;;;5106475;28;20444;-45
2021/11/23 00:16:20;;;;;;;1.30;1.10;;;;;;;;;;5081531;28;20466;-45
2021/11/23 00:18:47;;;;;;;1.20;1.10;;;;;;;;;;5101840;28;20264;-45
2021/11/23 00:21:13;;;;;;;1.23;1.13;;;;;;;;;;5105452;28;20169;-45
2021/11/23 00:23:40;;;;;;;2.58;1.05;;;;;;;;;;5104755;28;20185;-45
2021/11/23 00:26:06;;;;;;;1.17;1.08;;;;;;;;;;5113676;28;20177;-45
2021/11/23 00:28:32;;;;;;;1.30;1.20;;;;;;;;;;5102133;28;20872;-45
2021/11/23 00:30:58;;;;;;;2.28;1.42;;;;;;;;;;5105167;28;20432;-45
2021/11/23 00:33:26;;;;;;;1.55;1.17;;;;;;;;;;5103622;28;20186;-45
2021/11/23 00:35:52;;;;;;;1.27;1.17;;;;;;;;;;5102504;28;20185;-45
2021/11/23 00:38:18;;;;;;;1.17;1.08;;;;;;;;;;5102907;28;20185;-45
2021/11/23 00:40:44;;;;;;;1.05;0.95;;;;;;;;;;5105329;28;20185;-45
2021/11/23 00:43:10;;;;;;;1.60;1.13;;;;;;;;;;5097884;28;20193;-45
2021/11/23 00:45:37;;;;;;;1.73;1.20;;;;;;;;;;5109991;28;20242;-45
2021/11/23 00:48:04;;;;;;;1.40;1.30;;;;;;;;;;5104498;28;20170;-45
2021/11/23 00:50:30;;;;;;;1.90;1.40;;;;;;;;;;5107782;28;20186;-45
2021/11/23 00:52:56;;;;;;;1.00;1.00;;;;;;;;;;5107175;28;20185;-46
2021/11/23 00:55:23;;;;;;;2.70;1.10;;;;;;;;;;5108145;28;20191;-45
2021/11/23 00:57:49;;;;;;;1.75;1.27;;;;;;;;;;5112198;28;20208;-45
2021/11/23 01:00:15;;;;;;;2.55;1.17;;;;;;;;;;5105101;28;20182;-45
2021/11/23 01:02:41;;;;;;;3.08;1.33;;;;;;;;;;5103538;28;20200;-45
2021/11/23 01:05:08;;;;;;;2.67;1.30;;;;;;;;;;5103207;28;20217;-45
2021/11/23 01:07:34;;;;;;;1.95;1.20;;;;;;;;;;5103370;28;20184;-45
2021/11/23 01:10:00;;;;;;;2.83;1.10;;;;;;;;;;5100460;28;20561;-45
2021/11/23 01:12:26;;;;;;;1.48;1.30;;;;;;;;;;5110329;28;20457;-45
2021/11/23 01:14:52;;;;;;;1.23;1.13;;;;;;;;;;5104016;28;20177;-45
2021/11/23 01:17:18;;;;;;;2.03;1.33;;;;;;;;;;5100200;28;20262;-45
2021/11/23 01:19:44;;;;;;;2.03;1.30;;;;;;;;;;5109826;28;20624;-45
2021/11/23 01:22:11;;;;;;;1.40;1.30;;;;;;;;;;5111285;28;20182;-45
2021/11/23 01:24:37;;;;;;;1.17;1.08;;;;;;;;;;5098116;28;20229;-45
2021/11/23 01:27:03;;;;;;;1.73;1.40;;;;;;;;;;5103810;28;20174;-45
2021/11/23 01:29:29;;;;;;;1.42;1.20;;;;;;;;;;5106410;28;20513;-45
2021/11/23 01:31:55;;;;;;;1.40;1.30;;;;;;;;;;5105060;28;20185;-45
2021/11/23 01:34:21;;;;;;;1.40;1.10;;;;;;;;;;5103722;28;20188;-45
2021/11/23 01:36:48;;;;;;;1.48;1.38;;;;;;;;;;5095888;28;20174;-45
2021/11/23 01:39:14;;;;;;;1.25;1.15;;;;;;;;;;5103084;28;20189;-45
2021/11/23 01:41:40;;;;;;;1.40;1.20;;;;;;;;;;5106185;28;20185;-45
2021/11/23 01:44:06;;;;;;;1.38;1.27;;;;;;;;;;5104781;28;20201;-45
2021/11/23 01:46:32;;;;;;;1.30;1.20;;;;;;;;;;5114920;28;20184;-45
2021/11/23 01:48:58;;;;;;;3.60;1.25;;;;;;;;;;5104646;28;20186;-45
2021/11/23 01:51:24;;;;;;;1.65;1.40;;;;;;;;;;5106049;28;20178;-45
2021/11/23 01:53:50;;;;;;;1.67;1.40;;;;;;;;;;5106421;28;20596;-45
2021/11/23 01:56:16;;;;;;;1.77;1.25;;;;;;;;;;5112377;28;20225;-45
2021/11/23 01:58:42;;;;;;;1.50;1.40;;;;;;;;;;5111007;28;20560;-45
2021/11/23 02:01:08;;;;;;;2.20;1.13;;;;;;;;;;5107998;28;20214;-45
2021/11/23 02:03:35;;;;;;;2.55;1.55;;;;;;;;;;5094998;28;20190;-45
2021/11/23 02:06:01;;;;;;;1.80;1.50;;;;;;;;;;5097369;28;20274;-45
2021/11/23 02:08:27;;;;;;;1.35;1.25;;;;;;;;;;5100594;28;20239;-45
2021/11/23 02:10:54;;;;;;;2.38;1.38;;;;;;;;;;5103188;28;20185;-45
2021/11/23 02:13:20;;;;;;;1.30;1.20;;;;;;;;;;5106416;28;20204;-45
2021/11/23 02:15:46;;;;;;;1.33;1.23;;;;;;;;;;5097267;28;20223;-45
2021/11/23 02:18:19;;;;;;;1.50;1.40;;;;;;;;;;5097163;28;20261;-45
2021/11/23 02:20:46;;;;;;;1.50;1.30;;;;;;;;;;5107751;28;20174;-45
2021/11/23 02:23:13;;;;;;;1.40;1.30;;;;;;;;;;5109765;28;20200;-45
2021/11/23 02:25:39;;;;;;;1.70;1.60;;;;;;;;;;5100339;28;20216;-45
2021/11/23 02:28:07;;;;;;;1.45;1.35;;;;;;;;;;5108018;28;20264;-45
2021/11/23 02:30:38;;;;;;;2.13;1.52;;;;;;;;;;5103670;28;20169;-45
2021/11/23 02:33:04;;;;;;;1.30;1.17;;;;;;;;;;5103088;28;20265;-45
2021/11/23 02:35:30;;;;;;;1.70;1.50;;;;;;;;;;5094273;28;20178;-45
2021/11/23 02:37:57;;;;;;;1.58;1.48;;;;;;;;;;5101229;28;20184;-45
2021/11/23 02:40:24;;;;;;;1.50;1.40;;;;;;;;;;5104645;28;20178;-45
2021/11/23 02:42:50;;;;;;;1.63;1.52;;;;;;;;;;5104478;28;20189;-45
2021/11/23 02:45:17;;;;;;;1.40;1.30;;;;;;;;;;5105547;28;20279;-45
2021/11/23 02:47:43;;;;;;;1.60;1.50;;;;;;;;;;5110543;28;20180;-45
2021/11/23 02:50:11;;;;;;;1.63;1.52;;;;;;;;;;5104793;28;20255;-45
2021/11/23 02:52:37;;;;;;;1.40;1.30;;;;;;;;;;5100657;28;20189;-45
2021/11/23 02:55:05;;;;;;;2.17;1.65;;;;;;;;;;5105689;28;20189;-45
2021/11/23 02:57:32;;;;;;;1.52;1.38;;;;;;;;;;5103881;28;20193;-45
2021/11/23 02:59:59;;;;;;;1.67;1.35;;;;;;;;;;5105919;28;20302;-45
2021/11/23 03:02:25;;;;;;;1.40;1.30;;;;;;;;;;5103886;28;20213;-45
2021/11/23 03:04:55;;;;;;;1.23;1.13;;;;;;;;;;5102120;28;20208;-45
2021/11/23 03:07:21;;;;;;;3.22;1.55;;;;;;;;;;5099610;28;20184;-45
2021/11/23 03:09:47;;;;;;;1.60;1.48;;;;;;;;;;5103697;28;20204;-46
2021/11/23 03:12:16;;;;;;;1.30;1.20;;;;;;;;;;5102558;28;20564;-45
2021/11/23 03:14:42;;;;;;;1.40;1.30;;;;;;;;;;5101000;28;20182;-45
2021/11/23 03:17:09;;;;;;;1.50;1.40;;;;;;;;;;5102268;28;20193;-45
2021/11/23 03:19:36;;;;;;;1.92;1.50;;;;;;;;;;5102709;28;20188;-45
2021/11/23 03:22:02;;;;;;;1.70;1.40;;;;;;;;;;5094419;28;20205;-45
2021/11/23 03:24:29;;;;;;;1.45;1.35;;;;;;;;;;5105364;28;20211;-45
2021/11/23 03:26:55;;;;;;;1.52;1.42;;;;;;;;;;5101570;28;20173;-45
2021/11/23 03:29:21;;;;;;;1.45;1.35;;;;;;;;;;5098960;28;20181;-45
2021/11/23 03:31:47;;;;;;;1.55;1.45;;;;;;;;;;5104511;28;20169;-45
2021/11/23 03:34:14;;;;;;;2.45;1.33;;;;;;;;;;5095994;28;20188;-45
2021/11/23 03:36:40;;;;;;;1.33;1.23;;;;;;;;;;5104746;28;20188;-45
2021/11/23 03:39:09;;;;;;;1.08;1.05;;;;;;;;;;5109710;28;20185;-45
2021/11/23 03:41:36;;;;;;;1.50;1.40;;;;;;;;;;5104721;28;20553;-45
2021/11/23 03:44:05;;;;;;;1.50;1.30;;;;;;;;;;5100856;28;20184;-45
2021/11/23 03:46:32;;;;;;;1.27;1.17;;;;;;;;;;5097140;28;20227;-46
2021/11/23 03:48:58;;;;;;;2.17;1.50;;;;;;;;;;5105330;28;20205;-45
2021/11/23 03:51:24;;;;;;;1.52;1.42;;;;;;;;;;5103408;28;20276;-45
2021/11/23 03:53:50;;;;;;;1.55;1.15;;;;;;;;;;5101620;28;20178;-45
2021/11/23 03:56:16;;;;;;;1.58;1.40;;;;;;;;;;5102616;28;20223;-45
2021/11/23 03:58:43;;;;;;;1.52;1.42;;;;;;;;;;5101978;28;20182;-45
2021/11/23 04:01:09;;;;;;;2.08;1.63;;;;;;;;;;5101061;28;20212;-45
2021/11/23 04:03:35;;;;;;;1.48;1.35;;;;;;;;;;5098913;28;20194;-45
2021/11/23 04:06:02;;;;;;;2.83;1.48;;;;;;;;;;5098468;28;20593;-45
2021/11/23 04:08:28;;;;;;;1.30;1.20;;;;;;;;;;5107820;28;20169;-45
2021/11/23 04:10:54;;;;;;;1.58;1.48;;;;;;;;;;5107662;28;20204;-44
2021/11/23 04:13:20;;;;;;;1.73;1.63;;;;;;;;;;5109482;28;20181;-45
2021/11/23 04:15:46;;;;;;;1.10;1.10;;;;;;;;;;5102498;28;20186;-45
2021/11/23 04:18:12;;;;;;;1.65;1.20;;;;;;;;;;5097154;28;20221;-45
2021/11/23 04:20:39;;;;;;;1.48;1.38;;;;;;;;;;5101210;28;20500;-45
2021/11/23 04:23:05;;;;;;;1.40;1.30;;;;;;;;;;5097504;28;20186;-45
2021/11/23 04:25:31;;;;;;;1.33;1.23;;;;;;;;;;5106271;28;20726;-45
2021/11/23 04:27:57;;;;;;;1.40;1.30;;;;;;;;;;5110286;28;20250;-45
2021/11/23 04:30:23;;;;;;;1.70;1.45;;;;;;;;;;5107454;28;20222;-45
2021/11/23 04:32:50;;;;;;;1.65;1.17;;;;;;;;;;5107098;28;20227;-45
2021/11/23 04:35:16;;;;;;;1.30;1.20;;;;;;;;;;5104226;28;20181;-45
2021/11/23 04:37:43;;;;;;;1.50;1.30;;;;;;;;;;5101649;28;20181;-45
2021/11/23 04:40:09;;;;;;;2.42;1.38;;;;;;;;;;5106382;28;20174;-45
2021/11/23 04:42:35;;;;;;;1.60;1.40;;;;;;;;;;5109138;28;20181;-45
2021/11/23 04:45:03;;;;;;;2.33;1.20;;;;;;;;;;5104017;28;20256;-45
2021/11/23 04:47:29;;;;;;;1.77;1.50;;;;;;;;;;5098347;28;20211;-45
2021/11/23 04:49:55;;;;;;;1.95;1.60;;;;;;;;;;5105456;28;20310;-45
2021/11/23 04:52:21;;;;;;;1.65;1.52;;;;;;;;;;5110783;28;20604;-45
2021/11/23 04:54:47;;;;;;;1.55;1.38;;;;;;;;;;5101829;28;20264;-45
2021/11/23 04:57:13;;;;;;;1.73;1.45;;;;;;;;;;5103059;28;20264;-45
2021/11/23 04:59:39;;;;;;;3.22;1.40;;;;;;;;;;5101622;28;20268;-45
2021/11/23 05:02:05;;;;;;;1.65;1.45;;;;;;;;;;5107729;28;20200;-44
2021/11/23 05:04:31;;;;;;;1.60;1.30;;;;;;;;;;5102520;28;20239;-45
2021/11/23 05:06:57;;;;;;;1.40;1.30;;;;;;;;;;5102015;28;20185;-45
2021/11/23 05:09:23;;;;;;;6.20;1.60;;;;;;;;;;5103336;28;20188;-45
2021/11/23 05:11:49;;;;;;;4.13;1.70;;;;;;;;;;5103289;28;20182;-45
2021/11/23 05:14:16;;;;;;;1.92;1.58;;;;;;;;;;5101038;28;20269;-45
2021/11/23 05:16:42;;;;;;;2.65;1.77;;;;;;;;;;5098822;28;20182;-46
2021/11/23 05:19:08;;;;;;;3.63;1.45;;;;;;;;;;5099073;28;20214;-45
2021/11/23 05:21:34;;;;;;;8.55;2.38;;;;;;;;;;5106014;28;20840;-45
2021/11/23 05:24:00;;;;;;;17.90;4.70;;;;;;;;;;5102721;28;20260;-45
2021/11/23 05:26:27;;;;;;;11.07;4.30;;;;;;;;;;5106328;28;20249;-45
2021/11/23 05:28:53;;;;;;;19.17;5.25;;;;;;;;;;5101764;28;20296;-45
2021/11/23 05:31:19;;;;;;;17.80;5.55;;;;;;;;;;5104589;28;20247;-45
2021/11/23 05:33:45;;;;;;;18.38;6.13;;;;;;;;;;5105945;28;20193;-45
2021/11/23 05:36:11;;;;;;;25.52;7.40;;;;;;;;;;5102122;28;20464;-45
2021/11/23 05:38:37;;;;;;;23.33;7.45;;;;;;;;;;5107508;28;20223;-45
2021/11/23 05:41:03;;;;;;;29.08;8.10;;;;;;;;;;5104111;28;20174;-45
2021/11/23 05:43:31;;;;;;;28.73;8.90;;;;;;;;;;5102624;28;20628;-45
2021/11/23 05:45:57;;;;;;;25.08;7.80;;;;;;;;;;5103550;28;20201;-44
2021/11/23 05:48:23;;;;;;;26.73;8.68;;;;;;;;;;5110911;28;20189;-45
2021/11/23 05:50:49;;;;;;;26.65;8.00;;;;;;;;;;5103685;28;20252;-45
2021/11/23 05:53:15;;;;;;;28.63;9.23;;;;;;;;;;5096074;28;20260;-44
2021/11/23 05:55:42;;;;;;;27.50;8.68;;;;;;;;;;5106130;28;20292;-45
2021/11/23 05:58:08;;;;;;;24.90;8.13;;;;;;;;;;5106622;28;20233;-45
2021/11/23 06:00:34;;;;;;;30.95;8.55;;;;;;;;;;5102303;28;20196;-45
2021/11/23 06:03:00;;;;;;;29.02;8.88;;;;;;;;;;5107057;28;20200;-45
2021/11/23 06:05:26;;;;;;;26.17;8.90;;;;;;;;;;5103577;28;20224;-45
2021/11/23 06:07:52;;;;;;;30.10;9.70;;;;;;;;;;5119442;27;20611;-44
2021/11/23 06:10:18;;;;;;;27.73;9.38;;;;;;;;;;5104027;28;20290;-45
2021/11/23 06:12:44;;;;;;;26.90;9.40;;;;;;;;;;5107427;28;20180;-45
2021/11/23 06:15:13;;;;;;;27.30;9.20;;;;;;;;;;5105929;28;20226;-45
2021/11/23 06:17:39;;;;;;;26.02;8.75;;;;;;;;;;5102251;28;20184;-45
2021/11/23 06:20:05;;;;;;;26.83;8.90;;;;;;;;;;5106376;28;20694;-45
2021/11/23 06:22:32;;;;;;;26.27;9.05;;;;;;;;;;5103590;28;20260;-44
2021/11/23 06:24:59;;;;;;;25.92;9.35;;;;;;;;;;5101914;28;20205;-45
2021/11/23 06:27:25;;;;;;;26.55;9.80;;;;;;;;;;5108566;28;20177;-45
2021/11/23 06:29:51;;;;;;;27.40;9.77;;;;;;;;;;5104864;28;20198;-45
2021/11/23 06:32:17;;;;;;;30.08;9.05;;;;;;;;;;5105287;28;20177;-45
2021/11/23 06:34:43;;;;;;;22.52;8.48;;;;;;;;;;5103292;28;20177;-45
2021/11/23 06:37:09;;;;;;;25.25;9.00;;;;;;;;;;5097337;28;20181;-45
2021/11/23 06:39:35;;;;;;;24.85;8.68;;;;;;;;;;5109925;28;20224;-45
2021/11/23 06:42:01;;;;;;;23.85;8.23;;;;;;;;;;5107352;28;20195;-45
2021/11/23 06:44:27;;;;;;;28.90;8.52;;;;;;;;;;5106090;28;20209;-45
2021/11/23 06:46:53;;;;;;;21.65;7.80;;;;;;;;;;5101908;28;20181;-45
2021/11/23 06:49:20;;;;;;;25.80;8.43;;;;;;;;;;5102303;28;20207;-45
2021/11/23 06:51:46;;;;;;;19.80;7.45;;;;;;;;;;5106259;28;20192;-45
2021/11/23 06:54:12;;;;;;;19.73;8.18;;;;;;;;;;5097927;28;20197;-45
2021/11/23 06:56:38;;;;;;;21.88;8.18;;;;;;;;;;5104724;28;20183;-45
2021/11/23 06:59:04;;;;;;;21.60;8.20;;;;;;;;;;5101507;28;20182;-45
2021/11/23 07:01:30;;;;;;;19.10;7.78;;;;;;;;;;5105230;28;20702;-45
2021/11/23 07:03:57;;;;;;;22.15;7.85;;;;;;;;;;5102796;28;20220;-45
2021/11/23 07:06:23;;;;;;;22.52;8.07;;;;;;;;;;5103279;28;20197;-45
2021/11/23 07:08:50;;;;;;;17.35;7.13;;;;;;;;;;5109409;28;20221;-45
2021/11/23 07:11:16;;;;;;;20.73;6.88;;;;;;;;;;5105054;28;20211;-45
2021/11/23 07:13:42;;;;;;;17.65;6.63;;;;;;;;;;5101162;28;20774;-45
2021/11/23 07:16:09;;;;;;;18.20;7.15;;;;;;;;;;5104860;28;20174;-45
2021/11/23 07:18:35;;;;;;;19.38;6.70;;;;;;;;;;5109216;28;20622;-45
2021/11/23 07:21:01;;;;;;;15.90;6.30;;;;;;;;;;5105682;28;20174;-45
2021/11/23 07:23:27;;;;;;;18.67;6.70;;;;;;;;;;5102669;28;20189;-45
2021/11/23 07:25:53;;;;;;;17.77;6.50;;;;;;;;;;5104356;28;20521;-45
2021/11/23 07:28:19;;;;;;;15.68;6.28;;;;;;;;;;5101164;28;20198;-45
2021/11/23 07:30:46;;;;;;;17.65;6.25;;;;;;;;;;5105511;28;20541;-45
2021/11/23 07:33:12;;;;;;;20.67;6.90;;;;;;;;;;5102423;28;20197;-45
2021/11/23 07:35:38;;;;;;;15.60;6.28;;;;;;;;;;5100915;28;20166;-44
2021/11/23 07:38:04;;;;;;;13.98;5.82;;;;;;;;;;5096707;28;20680;-46
2021/11/23 07:40:31;;;;;;;14.38;5.95;;;;;;;;;;5104815;28;20181;-44
2021/11/23 07:42:57;;;;;;;17.08;6.60;;;;;;;;;;5105317;28;20173;-44
2021/11/23 07:45:24;;;;;;;16.05;6.45;;;;;;;;;;5102968;28;20617;-44
2021/11/23 07:47:50;;;;;;;17.17;5.95;;;;;;;;;;5101976;28;20169;-44
2021/11/23 07:50:16;;;;;;;15.98;5.88;;;;;;;;;;5104042;28;20226;-44
2021/11/23 07:52:43;;;;;;;11.38;5.47;;;;;;;;;;5100996;28;20177;-44
2021/11/23 07:55:09;;;;;;;10.80;4.75;;;;;;;;;;5100517;28;20182;-45
2021/11/23 07:57:37;;;;;;;12.63;6.43;;;;;;;;;;5106307;28;20174;-45
2021/11/23 08:00:03;;;;;;;14.32;5.78;;;;;;;;;;5106540;28;20184;-45
2021/11/23 08:02:29;;;;;;;11.65;5.07;;;;;;;;;;5106373;28;20194;-45
2021/11/23 08:04:55;;;;;;;14.13;5.22;;;;;;;;;;5106323;28;20513;-45
2021/11/23 08:07:21;;;;;;;14.27;5.38;;;;;;;;;;5101635;28;20186;-45
2021/11/23 08:09:47;;;;;;;11.38;4.60;;;;;;;;;;5107696;28;20654;-45
2021/11/23 08:12:13;;;;;;;12.63;5.25;;;;;;;;;;5102819;28;20577;-45
2021/11/23 08:14:39;;;;;;;11.82;5.78;;;;;;;;;;5108460;28;20185;-45
2021/11/23 08:17:05;;;;;;;11.07;5.25;;;;;;;;;;5115045;28;20192;-45
2021/11/23 08:19:31;;;;;;;12.52;5.32;;;;;;;;;;5107543;28;20569;-45
2021/11/23 08:21:57;;;;;;;12.32;5.00;;;;;;;;;;5104764;28;20185;-45
2021/11/23 08:24:23;;;;;;;9.35;5.03;;;;;;;;;;5103908;28;20280;-45
2021/11/23 08:26:49;;;;;;;10.63;4.97;;;;;;;;;;5101298;28;20181;-45
2021/11/23 08:29:15;;;;;;;12.18;5.40;;;;;;;;;;5099402;28;20563;-45
2021/11/23 08:31:42;;;;;;;10.77;4.97;;;;;;;;;;5111995;28;20292;-45
2021/11/23 08:34:09;;;;;;;11.45;5.20;;;;;;;;;;5109955;28;20178;-45
2021/11/23 08:36:35;;;;;;;10.40;4.63;;;;;;;;;;5102915;28;20181;-45
2021/11/23 08:39:03;;;;;;;11.15;4.82;;;;;;;;;;5104921;28;20177;-45
2021/11/23 08:41:29;;;;;;;11.00;5.07;;;;;;;;;;5108074;28;20267;-45
2021/11/23 08:43:55;;;;;;;12.68;5.28;;;;;;;;;;5102751;28;20482;-45
2021/11/23 08:46:21;;;;;;;10.48;4.85;;;;;;;;;;5103095;28;20346;-45
2021/11/23 08:48:48;;;;;;;8.63;4.97;;;;;;;;;;5107076;28;20256;-45
2021/11/23 08:51:18;;;;;;;11.77;5.40;;;;;;;;;;5104569;28;20174;-45
2021/11/23 08:53:44;;;;;;;8.18;4.28;;;;;;;;;;5102630;28;20174;-45
2021/11/23 08:56:10;;;;;;;7.68;4.30;;;;;;;;;;5105023;28;20177;-45
2021/11/23 08:58:38;;;;;;;11.00;5.10;;;;;;;;;;5113545;28;20189;-45
2021/11/23 09:01:03;;;;;;;9.00;4.82;;;;;;;;;;5100283;28;20422;-45
2021/11/23 09:03:30;;;;;;;9.85;4.60;;;;;;;;;;5105035;28;20211;-45
2021/11/23 09:05:56;;;;;;;11.10;5.03;;;;;;;;;;5100851;28;20611;-45
2021/11/23 09:08:22;;;;;;;6.78;4.10;;;;;;;;;;5099261;28;20636;-45
2021/11/23 09:10:48;;;;;;;10.13;4.97;;;;;;;;;;5102068;28;20186;-45
2021/11/23 09:13:14;;;;;;;10.10;4.85;;;;;;;;;;5104182;28;20168;-45
2021/11/23 09:15:40;;;;;;;9.93;5.05;;;;;;;;;;5107291;28;20516;-45
2021/11/23 09:18:07;;;;;;;8.98;4.80;;;;;;;;;;5114644;28;20176;-44
2021/11/23 09:20:35;;;;;;;8.20;4.45;;;;;;;;;;5104564;28;20576;-45
2021/11/23 09:23:02;;;;;;;9.57;4.68;;;;;;;;;;5103681;28;20261;-45
2021/11/23 09:25:28;;;;;;;8.95;4.25;;;;;;;;;;5108236;28;20253;-45
2021/11/23 09:27:59;;;;;;;9.05;4.30;;;;;;;;;;5104131;28;20211;-45
2021/11/23 09:30:25;;;;;;;7.70;4.13;;;;;;;;;;5104571;28;20185;-45
2021/11/23 09:32:51;;;;;;;9.43;4.53;;;;;;;;;;5103501;28;20213;-45
2021/11/23 09:35:18;;;;;;;7.53;4.20;;;;;;;;;;5099312;28;20181;-45
2021/11/23 09:37:44;;;;;;;6.80;4.13;;;;;;;;;;5102352;28;20249;-45
2021/11/23 09:40:11;;;;;;;8.27;4.20;;;;;;;;;;5106316;28;20626;-45
2021/11/23 09:42:37;;;;;;;8.68;4.55;;;;;;;;;;5105921;28;20170;-45
2021/11/23 09:45:04;;;;;;;7.03;3.75;;;;;;;;;;5100079;28;20527;-45
2021/11/23 09:47:30;;;;;;;6.68;3.70;;;;;;;;;;5104102;28;20217;-45
2021/11/23 09:50:00;;;;;;;7.38;3.60;;;;;;;;;;5102079;28;20451;-44
2021/11/23 09:52:26;;;;;;;6.05;3.47;;;;;;;;;;5095085;28;20212;-44
2021/11/23 09:54:53;;;;;;;5.93;3.78;;;;;;;;;;5100946;28;20567;-45
2021/11/23 09:57:19;;;;;;;7.18;3.63;;;;;;;;;;5105326;28;20180;-45
2021/11/23 09:59:45;;;;;;;6.45;3.72;;;;;;;;;;5106158;28;20181;-45
2021/11/23 10:02:10;;;;;;;6.45;3.50;;;;;;;;;;5104518;28;20467;-44
2021/11/23 10:04:37;;;;;;;5.43;3.60;;;;;;;;;;5100566;28;20331;-44
2021/11/23 10:07:09;;;;;;;7.60;3.80;;;;;;;;;;5094344;28;20174;-45
2021/11/23 10:09:43;;;;;;;5.93;3.63;;;;;;;;;;5106192;28;20169;-44
2021/11/23 10:12:14;;;;;;;5.03;3.25;;;;;;;;;;5106128;28;20177;-44
2021/11/23 10:14:40;;;;;;;6.93;3.70;;;;;;;;;;5110932;28;20177;-44
2021/11/23 10:17:22;;;;;;;4.28;3.17;;;;;;;;;;5102479;28;20182;-44
2021/11/23 10:19:48;;;;;;;4.30;2.90;;;;;;;;;;5105275;28;20234;-44
2021/11/23 10:22:28;;;;;;;5.43;3.05;;;;;;;;;;5109163;28;20302;-44
2021/11/23 10:24:57;;;;;;;5.35;3.55;;;;;;;;;;5108619;28;20212;-44
2021/11/23 10:27:23;;;;;;;7.07;3.50;;;;;;;;;;5105342;28;20426;-45
2021/11/23 10:29:50;;;;;;;4.32;2.80;;;;;;;;;;5113628;28;20196;-44
2021/11/23 10:32:16;;;;;;;4.75;3.20;;;;;;;;;;5101496;28;20605;-44
2021/11/23 10:34:44;;;;;;;4.60;3.15;;;;;;;;;;5085266;28;20562;-44
2021/11/23 10:37:26;;;;;;;5.90;3.40;;;;;;;;;;5106376;28;20177;-44
2021/11/23 10:39:52;;;;;;;5.45;3.47;;;;;;;;;;5103523;28;20174;-44
2021/11/23 10:42:18;;;;;;;3.88;2.75;;;;;;;;;;5103761;28;20180;-44
2021/11/23 10:44:52;;;;;;;6.65;3.10;;;;;;;;;;5103121;28;20277;-44
2021/11/23 10:47:19;;;;;;;4.03;2.70;;;;;;;;;;5099364;28;20177;-44
2021/11/23 10:49:46;;;;;;;6.00;3.10;;;;;;;;;;5105018;28;20173;-44
2021/11/23 10:52:41;;;;;;;7.03;3.40;;;;;;;;;;5103985;28;21769;-44
2021/11/23 10:55:07;;;;;;;4.80;2.60;;;;;;;;;;5105164;28;20180;-44
2021/11/23 10:57:38;;;;;;;5.13;3.08;;;;;;;;;;5100425;28;20766;-44
2021/11/23 11:00:05;;;;;;;4.70;3.30;;;;;;;;;;5109453;28;20177;-44
2021/11/23 11:02:32;;;;;;;3.28;2.42;;;;;;;;;;5107565;28;20205;-44
2021/11/23 11:04:58;;;;;;;4.32;2.70;;;;;;;;;;5098701;28;20198;-44
2021/11/23 11:07:26;;;;;;;3.70;2.70;;;;;;;;;;5096128;28;20199;-44
2021/11/23 11:09:53;;;;;;;3.20;2.60;;;;;;;;;;5106787;28;20244;-45
2021/11/23 11:12:19;;;;;;;4.05;2.38;;;;;;;;;;5099765;28;20536;-44
2021/11/23 11:14:49;;;;;;;4.05;2.67;;;;;;;;;;5100761;28;20186;-44
2021/11/23 11:17:15;;;;;;;6.13;2.63;;;;;;;;;;5104453;28;20556;-44
2021/11/23 11:19:51;;;;;;;3.53;2.53;;;;;;;;;;5102087;28;20494;-44
2021/11/23 11:22:24;;;;;;;3.72;2.78;;;;;;;;;;5103553;28;20545;-44
2021/11/23 11:25:27;;;;;;;3.58;2.33;;;;;;;;;;5112490;28;20189;-45
2021/11/23 11:27:54;;;;;;;3.72;2.50;;;;;;;;;;5097996;28;20170;-45
2021/11/23 11:30:20;;;;;;;4.88;2.28;;;;;;;;;;5097465;28;20169;-44
2021/11/23 11:32:47;;;;;;;3.00;2.50;;;;;;;;;;5107433;28;20173;-44
2021/11/23 11:35:25;;;;;;;4.78;2.70;;;;;;;;;;5112501;28;20441;-44
2021/11/23 11:37:52;;;;;;;4.10;2.60;;;;;;;;;;5107754;28;20282;-44
2021/11/23 11:40:25;;;;;;;3.88;2.50;;;;;;;;;;5109258;28;20233;-44
2021/11/23 11:42:53;;;;;;;3.58;2.35;;;;;;;;;;5104333;28;20268;-44
2021/11/23 11:45:20;;;;;;;3.08;2.47;;;;;;;;;;5113254;28;20204;-44
2021/11/23 11:47:48;;;;;;;4.20;2.40;;;;;;;;;;5105013;28;20567;-44
2021/11/23 11:50:18;;;;;;;3.97;2.30;;;;;;;;;;5112780;28;20192;-44
2021/11/23 11:52:57;;;;;;;2.63;2.17;;;;;;;;;;5109885;28;20181;-44
2021/11/23 11:55:24;;;;;;;3.17;2.20;;;;;;;;;;5100343;28;20258;-44
2021/11/23 11:58:00;;;;;;;3.72;2.45;;;;;;;;;;5109472;28;20197;-45
2021/11/23 12:00:36;;;;;;;3.65;2.17;;;;;;;;;;5114475;28;20253;-44
2021/11/23 12:03:13;;;;;;;3.22;2.10;;;;;;;;;;5104414;28;20526;-44
2021/11/23 12:05:53;;;;;;;4.72;3.08;;;;;;;;;;5100864;28;20201;-44
2021/11/23 12:08:26;;;;;;;3.75;2.30;;;;;;;;;;5100683;28;20170;-44
2021/11/23 12:10:53;;;;;;;5.28;2.28;;;;;;;;;;5104271;28;20214;-44
2021/11/23 12:13:35;;;;;;;3.63;2.67;;;;;;;;;;5104180;28;20182;-44
2021/11/23 12:16:19;;;;;;;3.75;2.10;;;;;;;;;;5099443;28;20181;-44
2021/11/23 12:18:45;;;;;;;2.80;2.05;;;;;;;;;;5103434;28;20488;-44
2021/11/23 12:21:12;;;;;;;3.15;1.90;;;;;;;;;;5104839;28;20182;-44
2021/11/23 12:23:40;;;;;;;2.50;2.00;;;;;;;;;;5110871;28;20272;-44
2021/11/23 12:26:09;;;;;;;4.78;1.88;;;;;;;;;;5105466;28;20197;-44
2021/11/23 12:28:36;;;;;;;3.40;1.98;;;;;;;;;;5101425;28;20468;-44
2021/11/23 12:31:06;;;;;;;4.45;2.00;;;;;;;;;;5108819;28;20579;-44
2021/11/23 12:33:32;;;;;;;2.53;1.98;;;;;;;;;;5101539;28;20181;-45
2021/11/23 12:35:59;;;;;;;2.83;2.10;;;;;;;;;;5104999;28;20476;-44
2021/11/23 12:38:27;;;;;;;5.72;2.47;;;;;;;;;;5107657;28;20218;-44
2021/11/23 12:40:53;;;;;;;5.72;2.35;;;;;;;;;;5109861;28;20181;-44
2021/11/23 12:43:19;;;;;;;3.00;2.08;;;;;;;;;;5106354;28;20260;-44
2021/11/23 12:45:46;;;;;;;7.65;2.15;;;;;;;;;;5102150;28;20205;-44
2021/11/23 12:48:15;;;;;;;2.95;2.03;;;;;;;;;;5105371;28;20170;-45
2021/11/23 12:50:41;;;;;;;4.50;1.70;;;;;;;;;;5106455;28;20177;-44
2021/11/23 12:53:10;;;;;;;2.63;2.00;;;;;;;;;;5103677;28;20477;-44
2021/11/23 12:55:36;;;;;;;3.30;2.10;;;;;;;;;;5103316;28;20188;-44
2021/11/23 12:58:03;;;;;;;3.78;1.85;;;;;;;;;;5106440;28;20230;-44
2021/11/23 13:00:30;;;;;;;3.15;1.90;;;;;;;;;;5103931;28;20181;-44
2021/11/23 13:02:56;;;;;;;2.22;1.80;;;;;;;;;;5103847;28;20251;-44
2021/11/23 13:05:26;;;;;;;4.30;2.10;;;;;;;;;;5104171;28;20611;-44
2021/11/23 13:07:55;;;;;;;4.13;2.28;;;;;;;;;;5104426;28;20181;-44
2021/11/23 13:10:23;;;;;;;4.20;2.08;;;;;;;;;;5098824;28;20660;-44
2021/11/23 13:12:52;;;;;;;2.47;2.00;;;;;;;;;;5107674;28;20253;-44
2021/11/23 13:15:19;;;;;;;4.03;2.08;;;;;;;;;;5088864;28;20545;-44
2021/11/23 13:17:45;;;;;;;5.53;2.10;;;;;;;;;;5102893;28;20185;-44
2021/11/23 13:20:13;;;;;;;3.88;1.73;;;;;;;;;;5104260;28;20178;-44
2021/11/23 13:22:43;;;;;;;2.35;1.60;;;;;;;;;;5115187;28;20481;-44
2021/11/23 13:25:10;;;;;;;3.80;2.13;;;;;;;;;;5104159;28;20194;-44
2021/11/23 13:27:36;;;;;;;2.78;2.00;;;;;;;;;;5105261;28;20196;-45
2021/11/23 13:30:23;;;;;;;3.92;1.88;;;;;;;;;;5101190;28;20181;-45
2021/11/23 13:32:50;;;;;;;3.10;1.98;;;;;;;;;;5115994;28;20173;-45
2021/11/23 13:35:17;;;;;;;1.92;1.60;;;;;;;;;;5109155;28;20541;-44
2021/11/23 13:37:43;;;;;;;2.95;1.88;;;;;;;;;;5099270;28;20195;-44
2021/11/23 13:40:19;;;;;;;3.25;1.85;;;;;;;;;;5107241;28;20560;-44
2021/11/23 13:42:45;;;;;;;2.80;1.90;;;;;;;;;;5104097;28;20231;-44
2021/11/23 13:45:12;;;;;;;2.55;1.70;;;;;;;;;;5085846;28;20206;-44
2021/11/23 13:47:38;;;;;;;2.63;1.90;;;;;;;;;;5103888;28;20174;-44
2021/11/23 13:50:05;;;;;;;1.92;1.77;;;;;;;;;;5101434;28;20266;-44
2021/11/23 13:52:34;;;;;;;3.05;2.38;;;;;;;;;;5104555;28;20442;-44
2021/11/23 13:55:03;;;;;;;4.13;2.47;;;;;;;;;;5105947;28;20181;-44
2021/11/23 13:57:30;;;;;;;2.92;2.30;;;;;;;;;;5103947;28;20186;-44
2021/11/23 13:59:58;;;;;;;3.30;2.40;;;;;;;;;;5108907;28;20180;-44
2021/11/23 14:02:42;;;;;;;4.38;2.05;;;;;;;;;;5101233;28;20170;-44
2021/11/23 14:05:08;;;;;;;5.30;2.35;;;;;;;;;;5101858;28;20213;-44
2021/11/23 14:07:54;;;;;;;2.65;2.05;;;;;;;;;;5095595;28;20203;-44
2021/11/23 14:10:30;;;;;;;4.22;2.50;;;;;;;;;;5097367;28;20212;-44
2021/11/23 14:13:05;;;;;;;2.88;2.20;;;;;;;;;;5107094;28;20205;-44
2021/11/23 14:15:38;;;;;;;3.08;2.22;;;;;;;;;;5105825;28;20544;-44
2021/11/23 14:18:04;;;;;;;3.25;2.30;;;;;;;;;;5103498;28;20241;-44
2021/11/23 14:20:30;;;;;;;3.67;2.30;;;;;;;;;;5104198;28;20549;-44
2021/11/23 14:23:06;;;;;;;2.95;2.30;;;;;;;;;;5103313;28;20174;-44
2021/11/23 14:25:32;;;;;;;5.00;2.58;;;;;;;;;;5103799;28;20204;-44
2021/11/23 14:28:00;;;;;;;2.60;2.22;;;;;;;;;;5106000;28;20261;-44
2021/11/23 14:30:26;;;;;;;3.92;2.40;;;;;;;;;;5098715;28;20584;-44
2021/11/23 14:32:52;;;;;;;3.40;2.22;;;;;;;;;;5105235;28;20181;-44
2021/11/23 14:35:18;;;;;;;3.47;2.45;;;;;;;;;;5102618;28;20555;-44
2021/11/23 14:37:44;;;;;;;4.47;2.47;;;;;;;;;;5108503;28;20265;-44
2021/11/23 14:40:11;;;;;;;3.22;2.38;;;;;;;;;;5100026;28;20189;-45
2021/11/23 14:42:37;;;;;;;3.38;2.30;;;;;;;;;;5102378;28;20545;-44